createdAt,value
2023-08-21T00:01:16.093Z,100028.03
2023-08-21T00:06:21.528Z,100018.00
2023-08-21T00:11:25.228Z,100012.72
2023-08-21T00:16:28.981Z,100009.09
2023-08-21T00:21:34.387Z,100007.56
2023-08-21T00:26:38.128Z,99997.72
2023-08-21T00:31:41.882Z,100004.34
2023-08-21T00:36:47.242Z,100012.91
2023-08-21T00:41:50.970Z,100007.16
2023-08-21T00:46:55.040Z,100003.31
2023-08-21T00:52:01.095Z,100001.72
2023-08-21T00:57:04.975Z,99994.31
2023-08-21T01:02:07.943Z,99991.69
2023-08-21T01:07:15.359Z,99983.94
2023-08-21T01:12:28.208Z,99973.84
2023-08-21T01:17:34.200Z,99961.31
2023-08-21T01:22:40.901Z,99960.25
2023-08-21T01:27:48.499Z,99963.72
2023-08-21T01:33:07.418Z,99955.28
2023-08-21T01:38:11.454Z,99947.31
2023-08-21T01:43:16.129Z,99943.81
2023-08-21T01:48:19.077Z,99938.09
2023-08-21T01:53:22.809Z,99926.81
2023-08-21T01:58:28.209Z,99917.28
2023-08-21T02:03:32.044Z,99910.94
2023-08-21T02:08:36.167Z,99893.22
2023-08-21T02:13:40.743Z,99892.78
2023-08-21T02:18:44.441Z,99888.63
2023-08-21T02:23:48.131Z,99882.41
2023-08-21T02:28:53.541Z,99886.66
2023-08-21T02:33:57.308Z,99897.94
2023-08-21T02:39:01.041Z,99898.78
2023-08-21T02:44:06.639Z,99899.50
2023-08-21T02:49:10.376Z,99896.84
2023-08-21T02:54:14.192Z,99898.38
2023-08-21T02:59:20.512Z,99901.38
2023-08-21T03:04:24.236Z,99906.44
2023-08-21T03:09:27.993Z,99902.72
2023-08-21T03:14:33.378Z,99906.75
2023-08-21T03:19:37.203Z,99909.78
2023-08-21T03:24:40.911Z,99891.84
2023-08-21T03:29:46.277Z,99888.00
2023-08-21T03:34:50.032Z,99895.69
2023-08-21T03:39:53.834Z,99892.69
2023-08-21T03:44:59.187Z,99891.31
2023-08-21T03:50:02.923Z,99893.16
2023-08-21T03:55:07.232Z,99890.69
2023-08-21T04:00:14.466Z,99884.63
2023-08-21T04:05:18.267Z,99894.97
2023-08-21T04:10:22.032Z,99888.28
2023-08-21T04:15:28.595Z,99896.47
2023-08-21T04:20:32.810Z,99886.88
2023-08-21T04:25:36.485Z,99902.09
2023-08-21T04:30:42.439Z,99902.88
2023-08-21T04:35:46.151Z,99884.63
2023-08-21T04:40:49.885Z,99876.31
2023-08-21T04:45:55.709Z,99873.38
2023-08-21T04:50:59.446Z,99860.00
2023-08-21T04:56:03.277Z,99862.97
2023-08-21T05:01:09.146Z,99851.34
2023-08-21T05:06:12.831Z,99855.44
2023-08-21T05:11:16.508Z,99857.00
2023-08-21T05:16:23.193Z,99840.09
2023-08-21T05:21:27.797Z,99847.38
2023-08-21T05:26:30.720Z,99844.91
2023-08-21T05:31:36.120Z,99850.03
2023-08-21T05:36:39.885Z,99828.88
2023-08-21T05:41:43.572Z,99840.50
2023-08-21T05:46:48.992Z,99842.41
2023-08-21T05:51:52.709Z,99843.94
2023-08-21T05:56:56.426Z,99832.19
2023-08-21T06:02:02.666Z,99821.38
2023-08-21T06:07:06.562Z,99822.97
2023-08-21T06:12:10.543Z,99827.69
2023-08-21T06:17:16.963Z,99823.03
2023-08-21T06:22:20.737Z,99813.81
2023-08-21T06:27:24.529Z,99809.88
2023-08-21T06:32:29.993Z,99812.22
2023-08-21T06:37:33.722Z,99821.88
2023-08-21T06:42:37.792Z,99813.44
2023-08-21T06:47:43.489Z,99819.19
2023-08-21T06:52:47.244Z,99824.81
2023-08-21T06:57:50.990Z,99851.50
2023-08-21T07:02:56.444Z,99850.03
2023-08-21T07:08:00.192Z,99848.13
2023-08-21T07:13:04.013Z,99854.63
2023-08-21T07:18:09.839Z,99851.97
2023-08-21T07:23:13.603Z,99865.00
2023-08-21T07:28:17.379Z,99866.84
2023-08-21T07:33:22.844Z,99866.00
2023-08-21T07:38:26.721Z,99877.34
2023-08-21T07:43:30.467Z,99884.34
2023-08-21T07:48:37.149Z,99887.41
2023-08-21T07:53:41.190Z,99895.53
2023-08-21T07:58:44.992Z,99897.88
2023-08-21T08:03:50.436Z,99891.09
2023-08-21T08:08:54.446Z,99909.66
2023-08-21T08:13:58.157Z,99910.72
2023-08-21T08:19:03.519Z,99910.50
2023-08-21T08:24:07.524Z,99921.19
2023-08-21T08:29:12.096Z,99934.94
2023-08-21T08:34:17.458Z,99931.84
2023-08-21T08:39:21.138Z,99943.69
2023-08-21T08:44:27.428Z,99945.81
2023-08-21T08:49:33.298Z,99951.28
2023-08-21T08:54:36.985Z,99960.31
2023-08-21T08:59:40.710Z,99957.75
2023-08-21T09:04:46.080Z,99968.28
2023-08-21T09:09:51.140Z,99972.19
2023-08-21T09:14:54.454Z,99989.09
2023-08-21T09:20:06.086Z,99994.88
2023-08-21T09:25:10.448Z,99996.84
2023-08-21T09:30:14.797Z,99995.63
2023-08-21T09:35:20.264Z,99998.88
2023-08-21T09:40:24.617Z,100010.28
2023-08-21T09:45:29.824Z,100022.53
2023-08-21T09:50:34.680Z,100021.56
2023-08-21T09:55:40.430Z,100037.75
2023-08-21T10:00:46.203Z,100039.03
2023-08-21T10:05:52.786Z,100048.66
2023-08-21T10:10:56.924Z,100054.13
2023-08-21T10:16:01.518Z,100060.13
2023-08-21T10:21:17.528Z,100065.78
2023-08-21T10:26:22.715Z,100073.44
2023-08-21T10:31:30.880Z,100080.44
2023-08-21T10:37:07.438Z,100104.41
2023-08-21T10:42:12.139Z,100117.63
2023-08-21T10:47:17.989Z,100129.63
2023-08-21T10:52:26.470Z,100142.47
2023-08-21T10:57:32.104Z,100155.31
2023-08-21T11:02:35.865Z,100155.06
2023-08-21T11:07:42.687Z,100173.22
2023-08-21T11:12:53.505Z,100179.69
2023-08-21T11:17:58.272Z,100191.34
2023-08-21T11:23:04.920Z,100198.34
2023-08-21T11:28:08.726Z,100209.66
2023-08-21T11:33:13.432Z,100215.47
2023-08-21T11:38:20.627Z,100232.00
2023-08-21T11:43:24.682Z,100237.94
2023-08-21T11:48:28.607Z,100254.63
2023-08-21T11:53:39.244Z,100271.88
2023-08-21T11:58:43.617Z,100275.81
2023-08-21T12:03:47.718Z,100295.19
2023-08-21T12:08:53.201Z,100300.72
2023-08-21T12:13:56.168Z,100306.25
2023-08-21T12:18:59.899Z,100304.75
2023-08-21T12:24:06.130Z,100309.63
2023-08-21T12:29:09.844Z,100331.06
2023-08-21T12:34:13.564Z,100349.84
2023-08-21T12:39:20.709Z,100369.69
2023-08-21T12:44:24.488Z,100386.75
2023-08-21T12:49:28.251Z,100395.81
2023-08-21T12:54:33.691Z,100408.78
2023-08-21T12:59:36.655Z,100418.16
2023-08-21T13:04:40.413Z,100434.94
2023-08-21T13:09:45.836Z,100437.59
2023-08-21T13:14:48.815Z,100445.06
2023-08-21T13:19:52.670Z,100477.13
2023-08-21T13:24:58.003Z,100471.81
2023-08-21T13:30:01.696Z,100478.53
2023-08-21T13:35:05.754Z,100503.66
2023-08-21T13:40:13.467Z,100502.00
2023-08-21T13:45:19.093Z,100515.81
2023-08-21T13:50:22.805Z,100516.97
2023-08-21T13:55:28.276Z,100532.91
2023-08-21T14:00:31.297Z,100551.91
2023-08-21T14:05:35.070Z,100561.56
2023-08-21T14:10:40.629Z,100576.28
2023-08-21T14:15:44.312Z,100583.47
2023-08-21T14:20:48.036Z,100603.94
2023-08-21T14:25:53.488Z,100602.78
2023-08-21T14:30:56.439Z,100613.56
2023-08-21T14:36:00.965Z,100620.38
2023-08-21T14:41:06.374Z,100630.09
2023-08-21T14:46:10.270Z,100637.19
2023-08-21T14:51:14.015Z,100651.81
2023-08-21T14:56:19.464Z,100651.19
2023-08-21T15:01:23.248Z,100663.91
2023-08-21T15:06:26.943Z,100676.47
2023-08-21T15:11:32.297Z,100681.72
2023-08-21T15:16:35.263Z,100692.97
2023-08-21T15:21:40.240Z,100713.94
2023-08-21T15:26:48.342Z,100721.97
2023-08-21T15:31:52.100Z,100729.66
2023-08-21T15:36:55.917Z,100734.38
2023-08-21T15:42:01.476Z,100742.09
2023-08-21T15:47:19.957Z,100747.75
2023-08-21T15:52:29.112Z,100735.22
2023-08-21T15:57:34.593Z,100736.56
2023-08-21T16:02:38.711Z,100747.63
2023-08-21T16:07:42.624Z,100750.50
2023-08-21T16:12:48.024Z,100758.31
2023-08-21T16:17:51.950Z,100744.59
2023-08-21T16:22:55.803Z,100764.97
2023-08-21T16:28:01.210Z,100759.16
2023-08-21T16:33:05.410Z,100768.81
2023-08-21T16:38:09.194Z,100779.88
2023-08-21T16:43:14.723Z,100780.81
2023-08-21T16:48:18.575Z,100785.22
2023-08-21T16:53:23.709Z,100804.06
2023-08-21T16:58:30.788Z,100816.69
2023-08-21T17:03:34.542Z,100842.47
2023-08-21T17:08:38.268Z,100857.03
2023-08-21T17:13:43.627Z,100869.19
2023-08-21T17:18:47.323Z,100892.47
2023-08-21T17:23:51.053Z,100909.97
2023-08-21T17:28:56.449Z,100927.53
2023-08-21T17:34:00.158Z,100923.25
2023-08-21T17:39:03.864Z,100942.41
2023-08-21T17:44:09.235Z,100930.66
2023-08-21T17:49:13.483Z,100967.59
2023-08-21T17:54:17.299Z,100936.19
2023-08-21T17:59:22.740Z,100950.69
2023-08-21T18:04:26.765Z,100969.16
2023-08-21T18:09:30.543Z,100990.19
2023-08-21T18:14:35.871Z,100983.91
2023-08-21T18:19:46.365Z,101027.56
2023-08-21T18:24:51.029Z,101021.28
2023-08-21T18:29:56.411Z,101041.28
2023-08-21T18:35:00.140Z,101075.78
2023-08-21T18:40:03.986Z,101089.09
2023-08-21T18:45:10.266Z,101093.38
2023-08-21T18:50:14.023Z,101106.31
2023-08-21T18:55:18.038Z,101079.81
2023-08-21T19:00:23.642Z,101105.09
2023-08-21T19:05:27.439Z,101116.41
2023-08-21T19:10:31.181Z,101115.31
2023-08-21T19:15:36.961Z,101104.56
2023-08-21T19:20:41.633Z,101106.03
2023-08-21T19:25:45.388Z,101126.63
2023-08-21T19:30:51.781Z,101138.47
2023-08-21T19:35:55.574Z,101142.31
2023-08-21T19:40:59.304Z,101145.72
2023-08-21T19:46:04.853Z,101144.72
2023-08-21T19:51:08.737Z,101147.53
2023-08-21T19:56:12.450Z,101159.41
2023-08-21T20:01:17.895Z,101161.13
2023-08-21T20:06:22.000Z,101175.00
2023-08-21T20:11:26.092Z,101175.47
2023-08-21T20:16:31.534Z,101154.97
2023-08-21T20:21:36.461Z,101177.22
2023-08-21T20:26:40.208Z,101191.94
2023-08-21T20:31:45.822Z,101171.66
2023-08-21T20:36:50.053Z,101162.06
2023-08-21T20:41:53.823Z,101166.72
2023-08-21T20:46:59.305Z,101155.75
2023-08-21T20:52:03.072Z,101182.25
2023-08-21T20:57:07.058Z,101172.41
2023-08-21T21:02:14.733Z,101169.25
2023-08-21T21:07:18.481Z,101156.63
2023-08-21T21:12:22.476Z,101172.06
2023-08-21T21:17:27.907Z,101164.09
2023-08-21T21:22:31.703Z,101135.78
2023-08-21T21:27:35.442Z,101136.31
2023-08-21T21:32:40.912Z,101139.69
2023-08-21T21:37:44.776Z,101160.09
2023-08-21T21:42:48.498Z,101152.63
2023-08-21T21:47:53.868Z,101157.63
2023-08-21T21:52:58.178Z,101136.66
2023-08-21T21:58:01.941Z,101134.91
2023-08-21T22:03:08.008Z,101125.66
2023-08-21T22:08:11.909Z,101149.97
2023-08-21T22:13:15.805Z,101137.31
2023-08-21T22:18:21.220Z,101149.75
2023-08-21T22:23:25.002Z,101156.88
2023-08-21T22:28:28.909Z,101133.13
2023-08-21T22:33:35.368Z,101137.88
2023-08-21T22:38:39.142Z,101114.19
2023-08-21T22:43:42.854Z,101129.59
2023-08-21T22:48:49.260Z,101143.31
2023-08-21T22:53:53.019Z,101146.94
2023-08-21T22:58:56.891Z,101133.75
2023-08-21T23:04:02.382Z,101150.19
2023-08-21T23:09:06.227Z,101139.72
2023-08-21T23:14:10.574Z,101128.00
2023-08-21T23:19:19.419Z,101147.06
2023-08-21T23:24:23.209Z,101113.63
2023-08-21T23:29:27.004Z,101106.91
2023-08-21T23:34:33.179Z,101122.25
2023-08-21T23:39:36.891Z,101122.84
2023-08-21T23:44:40.590Z,101140.94
2023-08-21T23:49:45.945Z,101150.63
2023-08-21T23:54:49.637Z,101133.91
2023-08-21T23:59:53.385Z,101146.41
